createdAt,value
2023-02-24T00:00:53.245Z,99634.58
2023-02-24T00:03:23.613Z,99633.89
2023-02-24T00:05:54.299Z,99629.70
2023-02-24T00:08:24.603Z,99628.63
2023-02-24T00:10:55.623Z,99621.50
2023-02-24T00:13:25.973Z,99617.66
2023-02-24T00:16:05.131Z,99613.48
2023-02-24T00:18:36.540Z,99610.02
2023-02-24T00:21:11.002Z,99602.35
2023-02-24T00:23:42.469Z,99593.64
2023-02-24T00:26:14.962Z,99592.77
2023-02-24T00:28:45.827Z,99587.92
2023-02-24T00:31:19.769Z,99588.11
2023-02-24T00:33:51.481Z,99590.75
2023-02-24T00:36:23.972Z,99587.11
2023-02-24T00:38:56.172Z,99586.95
2023-02-24T00:41:29.874Z,99576.70
2023-02-24T00:44:06.139Z,99579.34
2023-02-24T00:46:38.901Z,99573.94
2023-02-24T00:49:13.182Z,99570.47
2023-02-24T00:51:45.754Z,99566.66
2023-02-24T00:54:16.341Z,99561.98
2023-02-24T00:56:48.593Z,99558.16
2023-02-24T00:59:20.397Z,99554.67
2023-02-24T01:01:51.497Z,99555.53
2023-02-24T01:04:22.536Z,99550.81
2023-02-24T01:07:00.355Z,99547.35
2023-02-24T01:09:33.453Z,99545.45
2023-02-24T01:12:17.823Z,99544.73
2023-02-24T01:14:51.874Z,99541.60
2023-02-24T01:17:23.022Z,99535.35
2023-02-24T01:19:55.051Z,99536.38
2023-02-24T01:22:25.934Z,99534.27
2023-02-24T01:24:56.507Z,99530.59
2023-02-24T01:27:26.833Z,99529.74
2023-02-24T01:29:57.185Z,99530.79
2023-02-24T01:32:28.864Z,99527.13
2023-02-24T01:34:59.528Z,99523.66
2023-02-24T01:37:30.931Z,99525.73
2023-02-24T01:40:07.279Z,99524.56
2023-02-24T01:42:38.820Z,99521.27
2023-02-24T01:45:16.981Z,99519.04
2023-02-24T01:47:48.430Z,99509.66
2023-02-24T01:50:21.982Z,99506.71
2023-02-24T01:52:56.130Z,99506.02
2023-02-24T01:55:32.126Z,99501.88
2023-02-24T01:58:06.939Z,99500.15
2023-02-24T02:00:45.314Z,99501.20
2023-02-24T02:03:27.814Z,99495.82
2023-02-24T02:06:02.940Z,99489.05
2023-02-24T02:08:36.639Z,99487.30
2023-02-24T02:11:11.466Z,99482.58
2023-02-24T02:13:45.972Z,99483.12
2023-02-24T02:16:36.654Z,99483.29
2023-02-24T02:19:28.927Z,99483.46
2023-02-24T02:22:17.602Z,99478.58
2023-02-24T02:24:57.239Z,99482.40
2023-02-24T02:27:58.158Z,99479.07
2023-02-24T02:31:09.171Z,99472.48
2023-02-24T02:34:08.362Z,99470.42
2023-02-24T02:36:51.049Z,99468.73
2023-02-24T02:39:29.363Z,99467.88
2023-02-24T02:42:14.293Z,99465.64
2023-02-24T02:44:56.147Z,99460.78
2023-02-24T02:47:34.976Z,99454.77
2023-02-24T02:50:11.099Z,99455.64
2023-02-24T02:52:47.117Z,99453.91
2023-02-24T02:55:24.792Z,99450.94
2023-02-24T02:57:59.464Z,99450.95
2023-02-24T03:00:35.262Z,99444.70
2023-02-24T03:03:12.731Z,99445.58
2023-02-24T03:05:52.748Z,99441.61
2023-02-24T03:08:27.568Z,99441.10
2023-02-24T03:11:01.933Z,99436.95
2023-02-24T03:13:36.919Z,99435.58
2023-02-24T03:16:10.604Z,99432.80
2023-02-24T03:18:45.710Z,99433.34
2023-02-24T03:21:23.448Z,99433.17
2023-02-24T03:23:55.049Z,99427.80
2023-02-24T03:26:32.506Z,99425.02
2023-02-24T03:29:10.946Z,99420.34
2023-02-24T03:31:47.580Z,99418.09
2023-02-24T03:34:19.919Z,99418.44
2023-02-24T03:36:50.523Z,99421.77
2023-02-24T03:39:21.174Z,99420.73
2023-02-24T03:42:04.048Z,99419.34
2023-02-24T03:44:35.349Z,99411.70
2023-02-24T03:47:06.221Z,99411.02
2023-02-24T03:49:38.492Z,99407.89
2023-02-24T03:52:21.734Z,99407.88
2023-02-24T03:55:09.158Z,99407.02
2023-02-24T03:58:00.028Z,99402.16
2023-02-24T04:00:52.784Z,99404.58
2023-02-24T04:03:30.242Z,99396.94
2023-02-24T04:06:17.093Z,99394.48
2023-02-24T04:08:54.854Z,99391.88
2023-02-24T04:11:30.035Z,99391.15
2023-02-24T04:14:07.479Z,99381.75
2023-02-24T04:16:44.822Z,99386.40
2023-02-24T04:19:19.098Z,99380.83
2023-02-24T04:21:50.959Z,99375.77
2023-02-24T04:24:30.071Z,99375.56
2023-02-24T04:27:03.026Z,99371.38
2023-02-24T04:29:47.162Z,99370.50
2023-02-24T04:32:22.923Z,99369.64
2023-02-24T04:34:53.520Z,99367.02
2023-02-24T04:37:25.663Z,99364.05
2023-02-24T04:39:55.939Z,99364.77
2023-02-24T04:42:30.467Z,99360.98
2023-02-24T04:45:00.956Z,99363.79
2023-02-24T04:47:31.297Z,99358.20
2023-02-24T04:50:01.642Z,99357.16
2023-02-24T04:52:31.949Z,99355.63
2023-02-24T04:55:09.966Z,99357.41
2023-02-24T04:57:40.359Z,99354.84
2023-02-24T05:00:21.011Z,99351.41
2023-02-24T05:02:52.630Z,99349.70
2023-02-24T05:05:25.459Z,99345.56
2023-02-24T05:08:02.849Z,99338.27
2023-02-24T05:10:39.218Z,99342.29
2023-02-24T05:13:13.969Z,99340.23
2023-02-24T05:15:48.047Z,99336.95
2023-02-24T05:18:20.314Z,99335.24
2023-02-24T05:21:21.924Z,99329.69
2023-02-24T05:23:54.026Z,99330.92
2023-02-24T05:26:25.808Z,99327.62
2023-02-24T05:28:59.673Z,99328.14
2023-02-24T05:31:32.032Z,99325.86
2023-02-24T05:34:04.581Z,99325.66
2023-02-24T05:36:39.423Z,99326.89
2023-02-24T05:39:12.359Z,99326.85
2023-02-24T05:41:44.262Z,99328.41
2023-02-24T05:44:17.141Z,99329.82
2023-02-24T05:46:49.779Z,99326.48
2023-02-24T05:49:23.869Z,99327.69
2023-02-24T05:51:56.641Z,99323.88
2023-02-24T05:54:29.985Z,99325.24
2023-02-24T05:57:01.481Z,99321.07
2023-02-24T05:59:33.080Z,99321.92
2023-02-24T06:02:07.508Z,99318.63
2023-02-24T06:04:51.329Z,99321.41
2023-02-24T06:07:24.940Z,99320.19
2023-02-24T06:09:57.793Z,99323.12
2023-02-24T06:12:30.380Z,99327.45
2023-02-24T06:15:01.681Z,99324.46
2023-02-24T06:17:32.058Z,99327.59
2023-02-24T06:20:08.096Z,99329.66
2023-02-24T06:22:42.637Z,99327.77
2023-02-24T06:25:14.241Z,99330.83
2023-02-24T06:27:45.121Z,99330.71
2023-02-24T06:30:18.485Z,99331.12
2023-02-24T06:32:48.930Z,99329.08
2023-02-24T06:35:19.822Z,99324.75
2023-02-24T06:37:50.507Z,99330.83
2023-02-24T06:40:21.328Z,99328.94
2023-02-24T06:42:54.861Z,99327.92
2023-02-24T06:45:26.776Z,99327.59
2023-02-24T06:47:58.151Z,99330.73
2023-02-24T06:50:28.850Z,99332.66
2023-02-24T06:53:00.897Z,99330.75
2023-02-24T06:55:35.630Z,99329.18
2023-02-24T06:58:06.003Z,99335.13
2023-02-24T07:00:40.252Z,99337.57
2023-02-24T07:03:15.833Z,99339.48
2023-02-24T07:05:54.025Z,99338.91
2023-02-24T07:08:27.303Z,99335.92
2023-02-24T07:10:59.922Z,99338.00
2023-02-24T07:13:30.964Z,99336.95
2023-02-24T07:16:06.877Z,99333.64
2023-02-24T07:18:40.627Z,99337.29
2023-02-24T07:21:12.385Z,99336.61
2023-02-24T07:23:44.502Z,99341.13
2023-02-24T07:26:17.013Z,99335.41
2023-02-24T07:28:49.038Z,99335.93
2023-02-24T07:31:22.847Z,99334.20
2023-02-24T07:33:55.670Z,99326.73
2023-02-24T07:36:30.190Z,99322.44
2023-02-24T07:39:01.608Z,99321.29
2023-02-24T07:41:31.888Z,99323.42
2023-02-24T07:44:03.395Z,99322.41
2023-02-24T07:46:34.307Z,99317.95
2023-02-24T07:49:05.128Z,99319.71
2023-02-24T07:51:35.405Z,99319.92
2023-02-24T07:54:08.708Z,99311.95
2023-02-24T07:56:46.150Z,99312.11
2023-02-24T07:59:19.377Z,99313.73
2023-02-24T08:01:55.704Z,99309.08
2023-02-24T08:04:30.016Z,99304.55
2023-02-24T08:07:03.244Z,99303.52
2023-02-24T08:09:49.127Z,99297.88
2023-02-24T08:12:22.537Z,99293.45
2023-02-24T08:15:00.329Z,99295.47
2023-02-24T08:17:30.727Z,99293.18
2023-02-24T08:20:18.810Z,99293.48
2023-02-24T08:22:52.331Z,99290.98
2023-02-24T08:25:35.351Z,99289.00
2023-02-24T08:28:11.924Z,99287.75
2023-02-24T08:30:46.517Z,99287.41
2023-02-24T08:33:23.224Z,99284.46
2023-02-24T08:36:02.216Z,99279.58
2023-02-24T08:38:42.170Z,99285.08
2023-02-24T08:41:29.333Z,99279.66
2023-02-24T08:44:03.031Z,99281.04
2023-02-24T08:46:40.204Z,99277.11
2023-02-24T08:49:13.064Z,99276.45
2023-02-24T08:51:44.859Z,99271.77
2023-02-24T08:54:19.726Z,99268.47
2023-02-24T08:56:56.006Z,99265.63
2023-02-24T08:59:38.791Z,99259.47
2023-02-24T09:02:24.290Z,99254.54
2023-02-24T09:04:59.122Z,99254.61
2023-02-24T09:07:35.259Z,99251.71
2023-02-24T09:10:17.912Z,99250.30
2023-02-24T09:12:49.237Z,99251.37
2023-02-24T09:15:25.647Z,99245.48
2023-02-24T09:18:07.308Z,99243.48
2023-02-24T09:20:52.242Z,99243.47
2023-02-24T09:23:29.931Z,99236.85
2023-02-24T09:26:11.106Z,99229.61
2023-02-24T09:28:49.621Z,99230.63
2023-02-24T09:31:20.500Z,99225.95
2023-02-24T09:33:52.399Z,99224.08
2023-02-24T09:36:30.288Z,99225.98
2023-02-24T09:39:11.137Z,99221.13
2023-02-24T09:41:56.606Z,99219.59
2023-02-24T09:44:35.918Z,99215.96
2023-02-24T09:47:15.969Z,99214.92
2023-02-24T09:49:56.307Z,99208.55
2023-02-24T09:52:42.554Z,99204.49
2023-02-24T09:55:24.999Z,99200.28
2023-02-24T09:58:19.598Z,99197.77
2023-02-24T10:01:00.376Z,99194.64
2023-02-24T10:03:43.183Z,99196.01
2023-02-24T10:06:22.126Z,99191.90
2023-02-24T10:08:59.038Z,99186.65
2023-02-24T10:11:35.139Z,99191.88
2023-02-24T10:14:20.639Z,99191.50
2023-02-24T10:17:22.343Z,99190.36
2023-02-24T10:20:03.054Z,99184.41
2023-02-24T10:22:51.403Z,99179.41
2023-02-24T10:25:36.873Z,99168.94
2023-02-24T10:28:23.120Z,99168.05
2023-02-24T10:31:10.473Z,99164.77
2023-02-24T10:33:48.628Z,99167.48
2023-02-24T10:36:31.084Z,99164.69
2023-02-24T10:39:08.513Z,99154.48
2023-02-24T10:41:57.520Z,99148.56
2023-02-24T10:44:36.481Z,99144.09
2023-02-24T10:47:13.654Z,99140.08
2023-02-24T10:49:56.912Z,99131.83
2023-02-24T10:52:50.802Z,99130.29
2023-02-24T10:55:53.080Z,99128.67
2023-02-24T10:58:44.754Z,99124.85
2023-02-24T11:01:21.150Z,99116.80
2023-02-24T11:04:13.112Z,99117.19
2023-02-24T11:06:53.015Z,99103.81
2023-02-24T11:09:35.403Z,99099.45
2023-02-24T11:12:33.196Z,99092.83
2023-02-24T11:15:25.079Z,99087.19
2023-02-24T11:17:58.318Z,99081.60
2023-02-24T11:20:48.622Z,99082.34
2023-02-24T11:23:24.796Z,99065.86
2023-02-24T11:25:59.262Z,99067.84
2023-02-24T11:28:43.832Z,99057.77
2023-02-24T11:31:27.988Z,99050.46
2023-02-24T11:34:08.546Z,99046.16
2023-02-24T11:36:47.950Z,99037.99
2023-02-24T11:39:36.394Z,99034.30
2023-02-24T11:42:13.265Z,99034.98
2023-02-24T11:44:52.627Z,99033.91
2023-02-24T11:47:28.209Z,99029.11
2023-02-24T11:50:08.976Z,99016.89
2023-02-24T11:52:43.865Z,99013.20
2023-02-24T11:55:22.877Z,99008.10
2023-02-24T11:57:59.279Z,99005.67
2023-02-24T12:00:37.168Z,98998.83
2023-02-24T12:03:18.357Z,98996.64
2023-02-24T12:05:54.767Z,98990.73
2023-02-24T12:08:32.341Z,98992.84
2023-02-24T12:11:08.445Z,98989.15
2023-02-24T12:13:45.435Z,98980.58
2023-02-24T12:16:23.695Z,98972.54
2023-02-24T12:19:00.741Z,98966.19
2023-02-24T12:21:33.800Z,98967.71
2023-02-24T12:24:08.618Z,98967.75
2023-02-24T12:26:54.715Z,98961.29
2023-02-24T12:29:42.666Z,98960.52
2023-02-24T12:32:21.040Z,98953.23
2023-02-24T12:35:10.569Z,98942.19
2023-02-24T12:37:54.474Z,98942.14
2023-02-24T12:40:42.151Z,98937.79
2023-02-24T12:43:25.333Z,98927.56
2023-02-24T12:46:04.374Z,98917.48
2023-02-24T12:49:02.275Z,98910.92
2023-02-24T12:51:43.705Z,98902.24
2023-02-24T12:54:23.821Z,98897.02
2023-02-24T12:57:01.180Z,98896.02
2023-02-24T12:59:38.028Z,98895.66
2023-02-24T13:02:17.193Z,98899.31
2023-02-24T13:04:56.099Z,98893.18
2023-02-24T13:07:46.102Z,98885.33
2023-02-24T13:10:31.094Z,98882.69
2023-02-24T13:13:11.977Z,98868.33
2023-02-24T13:15:53.347Z,98869.46
2023-02-24T13:18:29.991Z,98864.52
2023-02-24T13:21:10.324Z,98861.30
2023-02-24T13:23:52.658Z,98851.95
2023-02-24T13:26:27.175Z,98843.91
2023-02-24T13:29:03.968Z,98842.20
2023-02-24T13:31:46.648Z,98834.29
2023-02-24T13:34:33.069Z,98829.29
2023-02-24T13:37:04.399Z,98830.89
2023-02-24T13:39:37.426Z,98824.79
2023-02-24T13:42:24.475Z,98827.13
2023-02-24T13:45:03.398Z,98817.58
2023-02-24T13:48:01.804Z,98806.77
2023-02-24T13:50:41.474Z,98796.04
2023-02-24T13:53:36.333Z,98792.99
2023-02-24T13:56:21.170Z,98783.53
2023-02-24T13:59:19.644Z,98781.31
2023-02-24T14:01:53.201Z,98783.58
2023-02-24T14:04:29.538Z,98783.79
2023-02-24T14:07:03.359Z,98782.95
2023-02-24T14:09:38.518Z,98789.14
2023-02-24T14:12:15.370Z,98783.33
2023-02-24T14:14:47.512Z,98786.50
2023-02-24T14:17:28.664Z,98785.80
2023-02-24T14:20:14.329Z,98783.34
2023-02-24T14:22:49.174Z,98781.89
2023-02-24T14:25:20.433Z,98777.66
2023-02-24T14:27:53.749Z,98775.67
2023-02-24T14:30:27.583Z,98771.64
2023-02-24T14:32:59.206Z,98773.44
2023-02-24T14:35:33.561Z,98776.88
2023-02-24T14:38:05.199Z,98768.46
2023-02-24T14:40:36.200Z,98769.56
2023-02-24T14:43:16.320Z,98770.45
2023-02-24T14:45:52.644Z,98768.06
2023-02-24T14:48:28.674Z,98763.80
2023-02-24T14:51:03.002Z,98759.84
2023-02-24T14:53:38.763Z,98753.50
2023-02-24T14:56:12.076Z,98748.87
2023-02-24T14:58:46.973Z,98747.44
2023-02-24T15:01:24.307Z,98740.55
2023-02-24T15:03:58.164Z,98734.61
2023-02-24T15:06:33.250Z,98732.72
2023-02-24T15:09:07.992Z,98723.96
2023-02-24T15:11:38.416Z,98723.64
2023-02-24T15:14:20.638Z,98714.11
2023-02-24T15:16:54.028Z,98718.86
2023-02-24T15:19:37.004Z,98716.72
2023-02-24T15:22:21.523Z,98716.88
2023-02-24T15:24:52.856Z,98715.73
2023-02-24T15:27:27.067Z,98715.98
2023-02-24T15:30:04.339Z,98716.73
2023-02-24T15:32:37.584Z,98716.95
2023-02-24T15:35:22.807Z,98712.33
2023-02-24T15:37:54.915Z,98710.60
2023-02-24T15:40:27.385Z,98708.59
2023-02-24T15:43:00.985Z,98697.81
2023-02-24T15:45:34.762Z,98693.44
2023-02-24T15:48:20.491Z,98692.84
2023-02-24T15:50:51.425Z,98689.64
2023-02-24T15:53:21.810Z,98685.14
2023-02-24T15:55:52.756Z,98687.29
2023-02-24T15:58:25.452Z,98677.96
2023-02-24T16:00:55.894Z,98670.54
2023-02-24T16:03:26.250Z,98666.45
2023-02-24T16:05:56.676Z,98666.14
2023-02-24T16:08:27.060Z,98664.80
2023-02-24T16:10:57.996Z,98656.70
2023-02-24T16:13:30.344Z,98652.90
2023-02-24T16:16:00.779Z,98644.25
2023-02-24T16:18:31.549Z,98648.06
2023-02-24T16:21:02.651Z,98647.77
2023-02-24T16:23:38.674Z,98650.73
2023-02-24T16:26:17.877Z,98647.25
2023-02-24T16:28:53.375Z,98648.89
2023-02-24T16:31:24.782Z,98652.56
2023-02-24T16:33:57.868Z,98649.45
2023-02-24T16:36:29.364Z,98646.16
2023-02-24T16:39:05.205Z,98645.52
2023-02-24T16:41:35.611Z,98644.55
2023-02-24T16:44:10.662Z,98649.48
2023-02-24T16:46:44.513Z,98649.04
2023-02-24T16:49:21.264Z,98652.00
2023-02-24T16:51:52.465Z,98649.27
2023-02-24T16:54:24.943Z,98650.55
2023-02-24T16:57:02.733Z,98652.83
2023-02-24T16:59:33.072Z,98644.05
2023-02-24T17:02:03.971Z,98645.65
2023-02-24T17:04:34.356Z,98648.98
2023-02-24T17:07:04.700Z,98644.75
2023-02-24T17:09:35.325Z,98647.12
2023-02-24T17:12:06.339Z,98646.73
2023-02-24T17:14:36.787Z,98648.38
2023-02-24T17:17:07.296Z,98651.56
2023-02-24T17:19:37.676Z,98642.77
2023-02-24T17:22:10.719Z,98637.39
2023-02-24T17:24:41.323Z,98637.80
2023-02-24T17:27:14.079Z,98631.45
2023-02-24T17:29:44.520Z,98629.98
2023-02-24T17:32:15.153Z,98626.31
2023-02-24T17:34:45.626Z,98625.06
2023-02-24T17:37:15.980Z,98620.27
2023-02-24T17:39:46.321Z,98619.25
2023-02-24T17:42:16.684Z,98618.64
2023-02-24T17:44:47.603Z,98611.77
2023-02-24T17:47:20.318Z,98603.73
2023-02-24T17:49:50.681Z,98602.76
2023-02-24T17:52:21.465Z,98594.85
2023-02-24T17:54:51.895Z,98595.56
2023-02-24T17:57:22.241Z,98590.89
2023-02-24T17:59:52.603Z,98587.96
2023-02-24T18:02:24.137Z,98592.67
2023-02-24T18:04:55.411Z,98587.73
2023-02-24T18:07:26.177Z,98585.30
2023-02-24T18:09:56.770Z,98576.13
2023-02-24T18:12:28.014Z,98576.67
2023-02-24T18:15:07.699Z,98576.23
2023-02-24T18:17:40.157Z,98566.98
2023-02-24T18:20:14.105Z,98561.45
2023-02-24T18:22:44.433Z,98560.82
2023-02-24T18:25:14.896Z,98559.49
2023-02-24T18:27:45.281Z,98553.59
2023-02-24T18:30:17.895Z,98550.45
2023-02-24T18:32:50.042Z,98544.84
2023-02-24T18:35:21.962Z,98542.38
2023-02-24T18:37:56.668Z,98539.87
2023-02-24T18:40:28.107Z,98538.47
2023-02-24T18:42:58.717Z,98538.71
2023-02-24T18:45:29.098Z,98546.58
2023-02-24T18:48:05.024Z,98546.80
2023-02-24T18:50:36.213Z,98542.85
2023-02-24T18:53:06.670Z,98545.62
2023-02-24T18:55:38.463Z,98544.24
2023-02-24T18:58:08.740Z,98542.18
2023-02-24T19:00:39.675Z,98540.48
2023-02-24T19:03:10.247Z,98538.23
2023-02-24T19:05:40.612Z,98539.94
2023-02-24T19:08:10.971Z,98538.92
2023-02-24T19:10:43.722Z,98532.87
2023-02-24T19:13:14.476Z,98527.39
2023-02-24T19:15:45.049Z,98520.34
2023-02-24T19:18:17.089Z,98521.23
2023-02-24T19:20:47.437Z,98507.58
2023-02-24T19:23:17.752Z,98506.04
2023-02-24T19:25:48.121Z,98502.09
2023-02-24T19:28:18.534Z,98495.03
2023-02-24T19:30:49.007Z,98488.63
2023-02-24T19:33:19.389Z,98483.12
2023-02-24T19:35:52.265Z,98467.02
2023-02-24T19:38:23.752Z,98463.60
2023-02-24T19:40:54.163Z,98469.36
2023-02-24T19:43:24.573Z,98459.19
2023-02-24T19:45:55.422Z,98464.63
2023-02-24T19:48:25.926Z,98470.73
2023-02-24T19:50:56.404Z,98465.22
2023-02-24T19:53:26.776Z,98461.10
2023-02-24T19:55:57.402Z,98459.35
2023-02-24T19:58:27.912Z,98455.21
2023-02-24T20:01:05.415Z,98455.41
2023-02-24T20:03:37.563Z,98453.68
2023-02-24T20:06:19.391Z,98451.42
2023-02-24T20:08:50.243Z,98443.67
2023-02-24T20:11:21.193Z,98438.50
2023-02-24T20:13:53.812Z,98429.15
2023-02-24T20:16:26.535Z,98424.61
2023-02-24T20:19:00.171Z,98428.80
2023-02-24T20:21:34.633Z,98426.06
2023-02-24T20:24:07.151Z,98417.24
2023-02-24T20:26:38.269Z,98421.42
2023-02-24T20:29:11.849Z,98417.98
2023-02-24T20:31:42.821Z,98409.34
2023-02-24T20:34:14.910Z,98407.61
2023-02-24T20:36:50.508Z,98409.52
2023-02-24T20:39:24.751Z,98408.50
2023-02-24T20:41:55.250Z,98405.96
2023-02-24T20:44:25.773Z,98401.50
2023-02-24T20:46:58.700Z,98402.21
2023-02-24T20:49:29.717Z,98404.30
2023-02-24T20:52:00.119Z,98400.46
2023-02-24T20:54:30.522Z,98399.09
2023-02-24T20:57:01.456Z,98396.86
2023-02-24T20:59:31.998Z,98392.16
2023-02-24T21:02:04.597Z,98393.84
2023-02-24T21:04:36.546Z,98392.80
2023-02-24T21:07:08.382Z,98390.56
2023-02-24T21:09:40.445Z,98378.27
2023-02-24T21:12:11.439Z,98376.34
2023-02-24T21:14:43.698Z,98373.73
2023-02-24T21:17:16.927Z,98368.02
2023-02-24T21:19:49.936Z,98363.36
2023-02-24T21:22:20.330Z,98359.53
2023-02-24T21:24:50.672Z,98353.46
2023-02-24T21:27:22.124Z,98347.56
2023-02-24T21:29:56.912Z,98344.63
2023-02-24T21:32:28.050Z,98341.04
2023-02-24T21:34:58.414Z,98340.86
2023-02-24T21:37:29.045Z,98335.65
2023-02-24T21:39:59.567Z,98339.80
2023-02-24T21:42:30.417Z,98337.55
2023-02-24T21:45:03.388Z,98334.09
2023-02-24T21:47:35.157Z,98335.30
2023-02-24T21:50:07.598Z,98330.45
2023-02-24T21:52:40.487Z,98329.63
2023-02-24T21:55:12.353Z,98329.52
2023-02-24T21:57:44.740Z,98326.10
2023-02-24T22:00:22.674Z,98325.48
2023-02-24T22:02:57.488Z,98323.45
2023-02-24T22:05:30.197Z,98320.77
2023-02-24T22:08:02.040Z,98321.66
2023-02-24T22:10:41.185Z,98324.80
2023-02-24T22:13:13.140Z,98321.90
2023-02-24T22:15:47.342Z,98319.99
2023-02-24T22:18:19.545Z,98319.47
2023-02-24T22:20:51.207Z,98321.05
2023-02-24T22:23:21.635Z,98319.14
2023-02-24T22:25:52.205Z,98321.21
2023-02-24T22:28:22.658Z,98322.11
2023-02-24T22:31:02.591Z,98321.42
2023-02-24T22:33:35.022Z,98321.41
2023-02-24T22:36:07.051Z,98326.64
2023-02-24T22:38:40.704Z,98325.97
2023-02-24T22:41:14.038Z,98328.93
2023-02-24T22:43:45.404Z,98325.50
2023-02-24T22:46:18.460Z,98320.67
2023-02-24T22:48:50.470Z,98320.70
2023-02-24T22:51:22.496Z,98316.06
2023-02-24T22:53:53.340Z,98315.25
2023-02-24T22:56:28.391Z,98312.73
2023-02-24T22:59:00.600Z,98308.83
2023-02-24T23:01:32.851Z,98309.09
2023-02-24T23:04:05.551Z,98305.58
2023-02-24T23:06:37.084Z,98305.95
2023-02-24T23:09:09.996Z,98311.20
2023-02-24T23:11:44.459Z,98309.55
2023-02-24T23:14:16.419Z,98303.89
2023-02-24T23:16:55.764Z,98308.91
2023-02-24T23:19:26.340Z,98311.04
2023-02-24T23:21:57.608Z,98311.24
2023-02-24T23:24:28.670Z,98301.79
2023-02-24T23:27:01.590Z,98303.03
2023-02-24T23:29:32.234Z,98299.43
2023-02-24T23:32:06.370Z,98301.20
2023-02-24T23:34:37.734Z,98293.81
2023-02-24T23:37:12.236Z,98298.88
2023-02-24T23:39:45.447Z,98300.02
2023-02-24T23:42:20.394Z,98297.69
2023-02-24T23:44:51.224Z,98299.02
2023-02-24T23:47:25.100Z,98289.61
2023-02-24T23:49:55.739Z,98282.79
2023-02-24T23:52:26.934Z,98291.65
2023-02-24T23:54:57.971Z,98286.15
2023-02-24T23:57:30.711Z,98282.75
